createdAt,value
2018-05-23T00:00:25.723Z,13.02
2018-05-23T00:01:26.064Z,13.01
2018-05-23T00:02:25.697Z,13.06
2018-05-23T00:03:25.690Z,12.98
2018-05-23T00:04:25.752Z,12.95
2018-05-23T00:11:25.563Z,12.95
2018-05-23T00:14:25.521Z,12.87
2018-05-23T00:15:25.502Z,12.87
2018-05-23T00:16:25.485Z,12.91
2018-05-23T00:17:25.527Z,12.88
2018-05-23T00:18:25.465Z,12.86
2018-05-23T00:19:25.750Z,12.84
2018-05-23T00:20:25.425Z,12.93
2018-05-23T00:21:25.415Z,12.88
2018-05-23T00:22:25.448Z,12.86
2018-05-23T00:23:25.381Z,12.86
2018-05-23T00:24:25.367Z,12.87
2018-05-23T00:25:25.351Z,12.86
2018-05-23T00:26:25.654Z,12.81
2018-05-23T00:27:25.323Z,12.79
2018-05-23T00:28:25.355Z,12.80
2018-05-23T00:29:25.311Z,12.83
2018-05-23T00:30:25.280Z,12.79
2018-05-23T00:31:25.264Z,12.79
2018-05-23T00:32:25.245Z,12.84
2018-05-23T00:33:25.581Z,12.79
2018-05-23T00:34:25.253Z,12.73
2018-05-23T00:35:25.200Z,12.73
2018-05-23T00:36:25.188Z,12.73
2018-05-23T00:37:25.170Z,12.71
2018-05-23T00:38:25.159Z,12.76
2018-05-23T00:39:25.201Z,12.69
2018-05-23T00:40:25.433Z,12.68
2018-05-23T00:41:25.112Z,12.71
2018-05-23T00:42:25.095Z,12.72
2018-05-23T00:43:25.079Z,12.65
2018-05-23T00:44:25.117Z,12.61
2018-05-23T00:45:25.048Z,12.61
2018-05-23T00:46:25.039Z,12.58
2018-05-23T00:47:25.329Z,12.53
2018-05-23T00:48:25.016Z,12.53
2018-05-23T00:49:24.997Z,12.54
2018-05-23T00:50:25.084Z,12.54
2018-05-23T00:51:24.967Z,12.50
2018-05-23T00:52:24.951Z,12.50
2018-05-23T00:53:24.937Z,12.61
2018-05-23T00:54:25.248Z,12.48
2018-05-23T00:55:24.916Z,12.54
2018-05-23T00:56:24.931Z,12.53
2018-05-23T00:57:24.871Z,12.54
2018-05-23T00:58:24.851Z,12.47
2018-05-23T00:59:24.839Z,12.48
2018-05-23T01:00:24.820Z,12.38
2018-05-23T01:01:25.108Z,12.46
2018-05-23T01:02:24.845Z,12.50
2018-05-23T01:03:24.777Z,12.36
2018-05-23T01:04:24.759Z,12.50
2018-05-23T01:05:24.756Z,12.47
2018-05-23T01:06:24.795Z,12.44
2018-05-23T01:07:24.716Z,12.47
2018-05-23T01:08:25.002Z,12.54
2018-05-23T01:09:24.690Z,12.38
2018-05-23T01:10:24.672Z,12.50
2018-05-23T01:12:24.688Z,12.50
2018-05-23T01:13:24.622Z,12.54
2018-05-23T01:15:24.898Z,12.46
2018-05-23T01:16:24.583Z,12.51
2018-05-23T01:17:24.616Z,12.53
2018-05-23T01:18:24.544Z,12.51
2018-05-23T01:19:24.531Z,12.48
2018-05-23T01:20:24.517Z,12.61
2018-05-23T01:21:24.812Z,12.50
2018-05-23T01:22:24.543Z,12.53
2018-05-23T01:24:24.472Z,12.51
2018-05-23T01:25:24.451Z,12.47
2018-05-23T01:26:24.440Z,12.46
2018-05-23T01:27:24.710Z,12.33
2018-05-23T01:28:24.445Z,12.55
2018-05-23T01:29:24.377Z,12.44
2018-05-23T01:30:24.362Z,12.50
2018-05-23T01:31:24.356Z,12.44
2018-05-23T01:32:24.339Z,12.46
2018-05-23T01:33:24.625Z,12.46
2018-05-23T01:34:24.362Z,12.33
2018-05-23T01:35:24.292Z,12.29
2018-05-23T01:36:24.269Z,12.30
2018-05-23T01:37:24.253Z,12.28
2018-05-23T01:38:24.238Z,12.30
2018-05-23T01:39:24.575Z,12.28
2018-05-23T01:40:24.220Z,12.30
2018-05-23T01:41:24.192Z,12.29
2018-05-23T01:42:24.178Z,12.40
2018-05-23T01:43:24.183Z,12.30
2018-05-23T01:44:24.150Z,12.35
2018-05-23T01:45:24.498Z,12.30
2018-05-23T01:46:24.116Z,12.35
2018-05-23T01:47:24.102Z,12.29
2018-05-23T01:48:24.099Z,12.25
2018-05-23T01:49:24.078Z,12.29
2018-05-23T01:50:24.068Z,12.23
2018-05-23T01:51:24.107Z,12.22
2018-05-23T01:52:24.323Z,12.18
2018-05-23T01:53:24.008Z,12.18
2018-05-23T01:54:24.079Z,12.14
2018-05-23T01:55:24.006Z,12.11
2018-05-23T01:56:24.103Z,12.11
2018-05-23T01:57:24.175Z,12.04
2018-05-23T01:58:23.959Z,12.04
2018-05-23T01:59:24.227Z,12.10
2018-05-23T02:00:23.936Z,12.03
2018-05-23T02:01:23.938Z,12.05
2018-05-23T02:02:23.870Z,12.08
2018-05-23T02:03:23.854Z,12.04
2018-05-23T02:04:23.839Z,12.15
2018-05-23T02:05:23.826Z,12.22
2018-05-23T02:06:24.108Z,12.17
2018-05-23T02:07:23.844Z,12.18
2018-05-23T02:08:23.778Z,12.15
2018-05-23T02:09:23.767Z,12.25
2018-05-23T02:10:23.748Z,12.17
2018-05-23T02:11:23.781Z,12.17
2018-05-23T02:12:23.719Z,12.29
2018-05-23T02:13:23.998Z,12.25
2018-05-23T02:14:23.684Z,12.35
2018-05-23T02:15:23.666Z,12.28
2018-05-23T02:16:23.652Z,12.28
2018-05-23T02:17:23.693Z,12.28
2018-05-23T02:18:23.620Z,12.18
2018-05-23T02:19:23.608Z,12.14
2018-05-23T02:20:23.892Z,12.10
2018-05-23T02:21:23.589Z,12.15
2018-05-23T02:22:23.557Z,12.18
2018-05-23T02:23:23.595Z,12.14
2018-05-23T02:24:23.531Z,12.18
2018-05-23T02:25:23.517Z,12.22
2018-05-23T02:26:23.497Z,12.23
2018-05-23T02:27:23.786Z,12.14
2018-05-23T02:29:23.502Z,12.05
2018-05-23T02:30:23.496Z,12.04
2018-05-23T02:31:23.446Z,11.97
2018-05-23T02:32:23.403Z,12.00
2018-05-23T02:33:23.498Z,11.96
2018-05-23T02:34:23.670Z,11.89
2018-05-23T02:35:23.361Z,11.96
2018-05-23T02:36:23.344Z,11.89
2018-05-23T02:37:23.406Z,11.93
2018-05-23T02:38:23.387Z,11.82
2018-05-23T02:39:23.348Z,11.91
2018-05-23T02:40:23.588Z,11.84
2018-05-23T02:41:23.266Z,11.88
2018-05-23T02:42:23.250Z,11.84
2018-05-23T02:43:23.227Z,11.89
2018-05-23T02:44:23.261Z,11.89
2018-05-23T02:45:23.298Z,11.99
2018-05-23T02:46:23.481Z,12.00
2018-05-23T02:47:23.170Z,11.96
2018-05-23T02:48:23.151Z,11.96
2018-05-23T02:49:23.150Z,11.97
2018-05-23T02:50:23.182Z,12.00
2018-05-23T02:52:23.472Z,12.05
2018-05-23T02:53:23.096Z,11.96
2018-05-23T02:54:23.061Z,11.89
2018-05-23T02:55:23.154Z,11.84
2018-05-23T02:56:23.031Z,11.91
2018-05-23T02:57:23.033Z,11.87
2018-05-23T02:58:23.307Z,11.88
2018-05-23T02:59:23.076Z,11.84
2018-05-23T03:00:23.013Z,11.91
2018-05-23T03:01:22.946Z,11.89
2018-05-23T03:02:22.938Z,11.96
2018-05-23T03:03:22.921Z,11.88
2018-05-23T03:04:23.208Z,11.93
2018-05-23T03:05:22.891Z,11.84
2018-05-23T03:06:22.916Z,11.88
2018-05-23T03:07:22.860Z,11.82
2018-05-23T03:09:22.831Z,11.85
2018-05-23T03:10:23.109Z,11.85
2018-05-23T03:11:22.792Z,11.85
2018-05-23T03:12:22.822Z,11.89
2018-05-23T03:13:22.755Z,11.82
2018-05-23T03:14:22.740Z,11.84
2018-05-23T03:15:22.839Z,11.80
2018-05-23T03:16:23.009Z,11.76
2018-05-23T03:17:22.693Z,11.77
2018-05-23T03:18:22.688Z,11.69
2018-05-23T03:19:22.674Z,11.76
2018-05-23T03:20:22.655Z,11.79
2018-05-23T03:21:22.693Z,11.74
2018-05-23T03:22:22.673Z,11.67
2018-05-23T03:23:22.923Z,11.67
2018-05-23T03:24:22.588Z,11.71
2018-05-23T03:25:22.568Z,11.64
2018-05-23T03:26:22.600Z,11.73
2018-05-23T03:27:22.546Z,11.67
2018-05-23T03:28:22.528Z,11.70
2018-05-23T03:29:22.512Z,11.67
2018-05-23T03:30:22.865Z,11.56
2018-05-23T03:31:22.524Z,11.59
2018-05-23T03:32:22.461Z,11.70
2018-05-23T03:33:22.438Z,11.70
2018-05-23T03:34:22.422Z,11.58
2018-05-23T03:35:22.415Z,11.69
2018-05-23T03:36:22.441Z,11.74
2018-05-23T03:37:22.678Z,11.71
2018-05-23T03:38:22.543Z,11.66
2018-05-23T03:39:22.369Z,11.67
2018-05-23T03:40:22.339Z,11.80
2018-05-23T03:41:22.316Z,11.79
2018-05-23T03:42:22.345Z,11.85
2018-05-23T03:43:22.280Z,11.79
2018-05-23T03:44:22.566Z,11.76
2018-05-23T03:45:22.251Z,11.87
2018-05-23T03:46:22.237Z,11.93
2018-05-23T03:47:22.225Z,11.99
2018-05-23T03:48:22.306Z,11.99
2018-05-23T03:49:22.186Z,11.99
2018-05-23T03:50:22.186Z,12.00
2018-05-23T03:51:22.468Z,12.04
2018-05-23T03:52:22.138Z,12.22
2018-05-23T03:53:22.174Z,12.18
2018-05-23T03:54:22.113Z,12.28
2018-05-23T03:55:22.117Z,12.29
2018-05-23T03:57:22.360Z,12.33
2018-05-23T03:58:22.142Z,12.43
2018-05-23T03:59:22.038Z,12.40
2018-05-23T04:00:22.011Z,12.48
2018-05-23T04:01:22.012Z,12.48
2018-05-23T04:02:21.994Z,12.47
2018-05-23T04:03:22.035Z,12.63
2018-05-23T04:04:22.001Z,12.63
2018-05-23T04:05:21.944Z,12.69
2018-05-23T04:06:21.927Z,12.72
2018-05-23T04:08:21.896Z,12.88
2018-05-23T04:09:21.927Z,12.84
2018-05-23T04:10:22.164Z,12.95
2018-05-23T04:11:21.847Z,12.96
2018-05-23T04:12:21.830Z,13.01
2018-05-23T04:13:21.811Z,13.02
2018-05-23T04:14:22.148Z,13.13
2018-05-23T04:15:21.790Z,13.20
2018-05-23T04:17:22.077Z,13.21
2018-05-23T04:18:21.909Z,13.20
2018-05-23T04:19:21.730Z,13.29
2018-05-23T04:20:21.810Z,13.38
2018-05-23T04:21:21.691Z,13.40
2018-05-23T04:23:21.966Z,13.54
2018-05-23T04:24:21.646Z,13.51
2018-05-23T04:25:21.683Z,13.57
2018-05-23T04:26:21.668Z,13.54
2018-05-23T04:28:21.592Z,13.75
2018-05-23T04:29:21.577Z,13.79
2018-05-23T04:30:21.982Z,13.94
2018-05-23T04:31:21.817Z,14.00
2018-05-23T04:32:21.612Z,13.98
2018-05-23T04:33:21.600Z,14.18
2018-05-23T04:34:21.519Z,14.23
2018-05-23T04:35:21.492Z,14.22
2018-05-23T04:36:21.780Z,14.26
2018-05-23T04:37:21.512Z,14.33
2018-05-23T04:38:21.444Z,14.44
2018-05-23T04:39:21.475Z,14.36
2018-05-23T04:40:21.501Z,14.41
2018-05-23T04:41:21.400Z,14.33
2018-05-23T04:42:21.756Z,14.44
2018-05-23T04:43:21.370Z,14.45
2018-05-23T04:44:21.359Z,14.53
2018-05-23T04:45:21.339Z,14.52
2018-05-23T04:47:21.313Z,14.55
2018-05-23T04:48:21.352Z,14.49
2018-05-23T04:49:21.593Z,14.56
2018-05-23T04:50:21.349Z,14.64
2018-05-23T04:51:21.272Z,14.61
2018-05-23T04:53:21.511Z,14.70
2018-05-23T04:54:21.219Z,14.73
2018-05-23T04:55:21.199Z,14.82
2018-05-23T04:56:21.486Z,14.85
2018-05-23T04:57:21.171Z,14.89
2018-05-23T04:58:21.158Z,14.90
2018-05-23T04:59:21.293Z,14.92
2018-05-23T05:00:21.130Z,14.96
2018-05-23T05:01:21.123Z,15.05
2018-05-23T05:02:21.102Z,15.07
2018-05-23T05:03:21.388Z,15.04
2018-05-23T05:04:21.084Z,15.10
2018-05-23T05:05:21.116Z,15.14
2018-05-23T05:06:21.049Z,15.22
2018-05-23T05:07:21.032Z,15.22
2018-05-23T05:08:21.019Z,15.35
2018-05-23T05:09:21.164Z,15.35
2018-05-23T05:10:21.338Z,15.27
2018-05-23T05:11:20.982Z,15.35
2018-05-23T05:12:20.968Z,15.44
2018-05-23T05:13:20.949Z,15.35
2018-05-23T05:14:20.940Z,15.41
2018-05-23T05:15:20.979Z,15.38
2018-05-23T05:16:20.934Z,15.51
2018-05-23T05:17:21.215Z,15.43
2018-05-23T05:18:20.886Z,15.52
2018-05-23T05:19:20.871Z,15.58
2018-05-23T05:20:20.910Z,15.62
2018-05-23T05:21:20.842Z,15.63
2018-05-23T05:22:20.829Z,15.66
2018-05-23T05:23:20.824Z,15.68
2018-05-23T05:24:21.406Z,15.70
2018-05-23T05:25:20.918Z,15.70
2018-05-23T05:26:20.813Z,15.83
2018-05-23T05:27:20.767Z,15.84
2018-05-23T05:28:20.754Z,15.83
2018-05-23T05:29:20.736Z,15.81
2018-05-23T05:30:20.773Z,15.88
2018-05-23T05:31:21.332Z,15.84
2018-05-23T05:32:20.770Z,15.84
2018-05-23T05:34:22.759Z,15.98
2018-05-23T05:35:20.759Z,15.96
2018-05-23T05:36:20.936Z,16.02
2018-05-23T05:37:20.630Z,16.03
2018-05-23T05:38:20.926Z,16.17
2018-05-23T05:39:20.608Z,16.18
2018-05-23T05:40:20.597Z,16.24
2018-05-23T05:41:20.584Z,16.22
2018-05-23T05:42:20.618Z,16.36
2018-05-23T05:43:20.551Z,16.39
2018-05-23T05:45:20.531Z,16.42
2018-05-23T05:46:20.573Z,16.54
2018-05-23T05:48:20.495Z,16.54
2018-05-23T05:49:20.475Z,16.67
2018-05-23T05:50:20.765Z,16.62
2018-05-23T05:51:20.455Z,16.62
2018-05-23T05:52:20.561Z,16.76
2018-05-23T05:53:20.514Z,16.79
2018-05-23T05:54:20.416Z,16.79
2018-05-23T05:55:20.492Z,16.88
2018-05-23T05:56:20.685Z,16.88
2018-05-23T05:57:20.420Z,17.07
2018-05-23T05:59:20.354Z,16.97
2018-05-23T06:00:20.337Z,17.07
2018-05-23T06:01:20.330Z,17.16
2018-05-23T06:02:20.674Z,17.27
2018-05-23T06:03:20.299Z,17.24
2018-05-23T06:04:20.288Z,17.31
2018-05-23T06:05:20.349Z,17.39
2018-05-23T06:06:20.270Z,17.49
2018-05-23T06:09:20.220Z,17.69
2018-05-23T06:10:20.212Z,17.71
2018-05-23T06:11:20.195Z,17.83
2018-05-23T06:12:20.252Z,17.81
2018-05-23T06:13:20.271Z,17.90
2018-05-23T06:15:20.486Z,17.99
2018-05-23T06:16:20.134Z,18.11
2018-05-23T06:19:20.291Z,18.09
2018-05-23T06:20:20.444Z,18.21
2018-05-23T06:22:20.148Z,18.36
2018-05-23T06:23:20.049Z,18.45
2018-05-23T06:24:20.039Z,18.49
2018-05-23T06:25:20.079Z,18.52
2018-05-23T06:26:20.013Z,18.60
2018-05-23T06:28:19.991Z,18.78
2018-05-23T06:30:20.056Z,18.85
2018-05-23T06:31:20.014Z,18.88
2018-05-23T06:32:19.941Z,18.96
2018-05-23T06:33:19.930Z,19.12
2018-05-23T06:34:19.922Z,19.17
2018-05-23T06:35:19.912Z,19.23
2018-05-23T06:36:19.902Z,19.31
2018-05-23T06:37:20.345Z,19.37
2018-05-23T06:38:19.880Z,19.34
2018-05-23T06:39:20.177Z,19.45
2018-05-23T06:40:19.861Z,19.49
2018-05-23T06:42:19.889Z,19.60
2018-05-23T06:43:19.872Z,19.62
2018-05-23T06:44:19.816Z,19.70
2018-05-23T06:45:19.796Z,19.70
2018-05-23T06:47:19.784Z,19.71
2018-05-23T06:48:19.812Z,19.74
2018-05-23T06:49:19.757Z,19.79
2018-05-23T06:50:19.823Z,19.81
2018-05-23T06:51:19.733Z,19.90
2018-05-23T06:52:19.733Z,19.97
2018-05-23T06:54:19.760Z,20.05
2018-05-23T06:55:19.687Z,20.08
2018-05-23T06:59:19.643Z,20.29
2018-05-23T07:00:19.935Z,20.36
2018-05-23T07:01:19.637Z,20.36
2018-05-23T07:02:20.628Z,20.39
2018-05-23T07:04:19.750Z,20.37
2018-05-23T07:05:19.583Z,20.41
2018-05-23T07:06:19.569Z,20.42
2018-05-23T07:08:19.848Z,20.48
2018-05-23T07:09:19.540Z,20.53
2018-05-23T07:10:19.585Z,20.56
2018-05-23T07:11:19.571Z,20.55
2018-05-23T07:12:19.506Z,20.56
2018-05-23T07:13:19.501Z,20.50
2018-05-23T07:15:19.499Z,20.61
2018-05-23T07:16:19.573Z,20.61
2018-05-23T07:17:19.462Z,20.64
2018-05-23T07:19:19.443Z,20.79
2018-05-23T07:24:19.396Z,21.23
2018-05-23T07:26:19.724Z,21.53
2018-05-23T07:27:19.366Z,21.65
2018-05-23T07:28:19.349Z,21.93
2018-05-23T07:29:19.348Z,22.13
2018-05-23T07:31:19.525Z,23.01
2018-05-23T07:33:19.296Z,23.73
2018-05-23T07:34:20.235Z,24.04
2018-05-23T07:35:19.275Z,24.36
2018-05-23T07:36:19.268Z,24.63
2018-05-23T07:37:19.314Z,24.90
2018-05-23T07:38:19.864Z,24.89
2018-05-23T07:43:19.329Z,25.58
2018-05-23T07:45:19.187Z,26.08
2018-05-23T07:46:19.178Z,26.39
2018-05-23T07:47:19.171Z,26.53
2018-05-23T07:48:19.313Z,26.82
2018-05-23T07:49:19.160Z,27.12
2018-05-23T07:51:19.143Z,27.40
2018-05-23T07:52:19.127Z,27.60
2018-05-23T07:53:19.169Z,27.69
2018-05-23T07:54:19.164Z,27.61
2018-05-23T07:55:19.120Z,27.76
2018-05-23T07:59:19.074Z,28.19
2018-05-23T08:00:19.068Z,28.34
2018-05-23T08:02:19.379Z,28.52
2018-05-23T08:03:19.048Z,28.44
2018-05-23T08:05:19.040Z,28.42
2018-05-23T08:07:19.022Z,28.83
2018-05-23T08:12:19.139Z,28.68
2018-05-23T08:13:19.031Z,28.87
2018-05-23T08:16:19.263Z,29.52
2018-05-23T08:19:18.951Z,29.55
2018-05-23T08:20:18.949Z,29.40
2018-05-23T08:21:18.934Z,29.39
2018-05-23T08:23:18.986Z,29.17
2018-05-23T08:24:20.029Z,29.24
2018-05-23T08:30:18.906Z,29.65
2018-05-23T08:31:18.914Z,29.83
2018-05-23T08:32:18.885Z,30.18
2018-05-23T08:33:18.938Z,30.20
2018-05-23T08:34:19.571Z,29.84
2018-05-23T08:35:19.394Z,29.95
2018-05-23T08:36:18.949Z,29.99
2018-05-23T08:37:18.868Z,30.00
2018-05-23T08:38:18.897Z,29.96
2018-05-23T08:39:18.913Z,29.98
2018-05-23T08:40:18.858Z,29.73
2018-05-23T08:41:18.871Z,29.80
2018-05-23T08:42:19.227Z,29.61
2018-05-23T08:43:18.850Z,29.54
2018-05-23T08:44:18.978Z,29.50
2018-05-23T08:47:18.840Z,29.46
2018-05-23T08:48:18.845Z,29.40
2018-05-23T08:50:18.833Z,29.61
2018-05-23T08:51:18.883Z,29.54
2018-05-23T08:52:18.828Z,29.34
2018-05-23T08:54:18.835Z,29.63
2018-05-23T08:55:19.081Z,29.74
2018-05-23T08:56:19.544Z,29.59
2018-05-23T08:58:18.822Z,29.54
2018-05-23T08:59:18.977Z,29.61
2018-05-23T09:00:18.818Z,29.71
2018-05-23T09:01:18.821Z,29.96
2018-05-23T09:02:19.119Z,30.05
2018-05-23T09:03:18.825Z,29.63
2018-05-23T09:06:18.859Z,29.96
2018-05-23T09:08:19.117Z,30.08
2018-05-23T09:16:18.852Z,30.03
2018-05-23T09:18:18.890Z,30.29
2018-05-23T09:30:18.789Z,30.36
2018-05-23T09:31:18.788Z,30.33
2018-05-23T09:32:19.126Z,30.29
2018-05-23T09:35:18.791Z,29.84
2018-05-23T09:43:18.780Z,29.74
2018-05-23T10:01:18.770Z,30.29
2018-05-23T10:03:19.113Z,30.75
2018-05-23T10:05:19.068Z,30.55
2018-05-23T10:09:18.805Z,30.86
2018-05-23T10:10:18.808Z,30.58
2018-05-23T10:11:18.759Z,30.82
2018-05-23T10:12:19.063Z,30.46
2018-05-23T10:17:19.122Z,29.19
2018-05-23T10:19:19.098Z,29.33
2018-05-23T10:27:18.735Z,28.98
2018-05-23T10:35:18.829Z,29.25
2018-05-23T10:36:18.780Z,29.46
2018-05-23T10:44:18.712Z,30.90
2018-05-23T10:48:18.755Z,31.57
2018-05-23T10:52:18.755Z,31.90
2018-05-23T10:56:18.702Z,31.97
2018-05-23T10:58:18.712Z,32.35
2018-05-23T10:59:18.705Z,32.48
2018-05-23T11:05:18.767Z,33.54
2018-05-23T11:07:18.728Z,33.33
2018-05-23T11:12:19.073Z,34.16
2018-05-23T11:29:18.821Z,33.22
2018-05-23T11:43:19.368Z,33.51
2018-05-23T11:45:19.000Z,34.01
2018-05-23T11:53:18.929Z,33.71
2018-05-23T11:56:18.845Z,33.44
2018-05-23T12:01:18.861Z,32.58
2018-05-23T12:06:19.173Z,33.06
2018-05-23T12:07:19.284Z,33.17
2018-05-23T12:08:19.174Z,33.35
2018-05-23T12:12:23.330Z,34.10
2018-05-23T12:14:20.919Z,33.16
2018-05-23T12:16:19.093Z,33.37
2018-05-23T12:17:18.989Z,33.26
2018-05-23T12:18:18.909Z,33.32
2018-05-23T12:19:18.977Z,33.26
2018-05-23T12:20:19.706Z,33.10
2018-05-23T12:21:19.315Z,33.13
2018-05-23T12:22:18.998Z,33.37
2018-05-23T12:24:19.663Z,33.10
2018-05-23T12:25:20.553Z,32.73
2018-05-23T12:27:18.979Z,32.05
2018-05-23T12:29:19.895Z,33.04
2018-05-23T12:30:19.600Z,33.36
2018-05-23T12:31:19.063Z,33.52
2018-05-23T12:32:18.948Z,33.82
2018-05-23T12:34:18.981Z,33.85
2018-05-23T12:35:19.048Z,33.33
2018-05-23T12:36:18.995Z,33.49
2018-05-23T12:37:19.246Z,33.51
2018-05-23T12:41:18.981Z,34.03
2018-05-23T12:42:18.948Z,34.00
2018-05-23T12:43:19.037Z,34.04
2018-05-23T12:44:18.967Z,34.00
2018-05-23T12:45:18.965Z,33.88
2018-05-23T12:46:19.012Z,33.55
2018-05-23T12:51:19.093Z,33.62
2018-05-23T12:52:18.980Z,33.76
2018-05-23T12:53:18.987Z,34.04
2018-05-23T12:54:18.988Z,34.38
2018-05-23T12:55:19.001Z,34.37
2018-05-23T12:56:19.356Z,34.50
2018-05-23T12:57:19.605Z,34.52
2018-05-23T12:58:19.005Z,34.42
2018-05-23T12:59:19.012Z,34.48
2018-05-23T13:00:19.021Z,34.16
2018-05-23T13:01:19.100Z,34.04
2018-05-23T13:03:19.492Z,34.34
2018-05-23T13:05:19.035Z,34.85
2018-05-23T13:06:19.103Z,34.67
2018-05-23T13:08:19.052Z,34.66
2018-05-23T13:10:19.361Z,34.10
2018-05-23T13:11:19.066Z,33.82
2018-05-23T13:12:19.136Z,34.07
2018-05-23T13:13:19.084Z,34.01
2018-05-23T13:14:19.255Z,33.78
2018-05-23T13:17:19.391Z,34.11
2018-05-23T13:19:19.100Z,34.13
2018-05-23T13:21:19.112Z,34.76
2018-05-23T13:22:19.117Z,34.85
2018-05-23T13:23:19.120Z,34.86
2018-05-23T13:24:19.423Z,34.60
2018-05-23T13:26:19.181Z,34.53
2018-05-23T13:27:19.131Z,34.47
2018-05-23T13:28:19.136Z,34.60
2018-05-23T13:29:19.141Z,34.63
2018-05-23T13:30:19.544Z,34.76
2018-05-23T13:31:19.530Z,34.42
2018-05-23T13:32:19.149Z,34.38
2018-05-23T13:33:19.153Z,34.55
2018-05-23T13:34:19.157Z,34.25
2018-05-23T13:35:19.161Z,34.22
2018-05-23T13:39:19.479Z,33.91
2018-05-23T13:42:19.580Z,32.61
2018-05-23T13:44:19.195Z,32.20
2018-05-23T13:45:19.198Z,32.08
2018-05-23T13:46:19.502Z,31.66
2018-05-23T13:47:19.338Z,31.27
2018-05-23T13:51:19.303Z,30.77
2018-05-23T13:52:19.482Z,30.78
2018-05-23T13:53:19.611Z,30.86
2018-05-23T13:54:19.243Z,31.04
2018-05-23T13:55:19.232Z,31.54
2018-05-23T13:56:19.243Z,31.52
2018-05-23T13:58:19.237Z,31.64
2018-05-23T13:59:19.239Z,31.39
2018-05-23T14:00:19.547Z,31.60
2018-05-23T14:01:19.241Z,31.82
2018-05-23T14:03:19.243Z,32.05
2018-05-23T14:04:19.336Z,32.06
2018-05-23T14:05:19.332Z,32.08
2018-05-23T14:06:19.605Z,31.97
2018-05-23T14:07:19.251Z,32.21
2018-05-23T14:09:19.283Z,31.79
2018-05-23T14:11:19.339Z,31.76
2018-05-23T14:12:19.923Z,31.75
2018-05-23T14:13:19.519Z,31.76
2018-05-23T14:26:19.283Z,31.75
2018-05-23T14:28:19.283Z,31.63
2018-05-23T14:29:19.332Z,31.71
2018-05-23T14:38:20.075Z,31.98
2018-05-23T14:39:19.343Z,31.79
2018-05-23T14:40:19.380Z,31.78
2018-05-23T14:42:19.341Z,31.71
2018-05-23T14:47:20.281Z,30.75
2018-05-23T14:49:19.523Z,30.89
2018-05-23T14:51:19.403Z,30.60
2018-05-23T14:52:19.304Z,30.28
2018-05-23T14:53:19.592Z,30.36
2018-05-23T14:55:19.418Z,30.77
2018-05-23T14:57:19.310Z,31.38
2018-05-23T14:58:19.326Z,31.27
2018-05-23T15:03:19.622Z,31.19
2018-05-23T15:04:19.419Z,31.10
2018-05-23T15:05:19.512Z,31.24
2018-05-23T15:06:19.324Z,31.37
2018-05-23T15:07:19.381Z,31.64
2018-05-23T15:08:19.317Z,31.89
2018-05-23T15:12:19.320Z,31.71
2018-05-23T15:15:19.328Z,31.14
2018-05-23T15:16:19.325Z,31.07
2018-05-23T15:17:19.679Z,30.83
2018-05-23T15:18:19.333Z,30.92
2018-05-23T15:19:19.522Z,30.77
2018-05-23T15:23:19.386Z,30.32
2018-05-23T15:24:19.713Z,30.30
2018-05-23T15:28:19.332Z,30.90
2018-05-23T15:29:19.334Z,31.10
2018-05-23T15:30:19.329Z,31.07
2018-05-23T15:31:19.648Z,31.11
2018-05-23T15:34:19.438Z,30.59
2018-05-23T15:40:20.051Z,30.89
2018-05-23T15:41:19.342Z,30.99
2018-05-23T15:43:19.348Z,30.88
2018-05-23T15:46:19.760Z,30.49
2018-05-23T15:47:19.346Z,30.62
2018-05-23T15:48:19.345Z,30.73
2018-05-23T15:50:19.350Z,30.90
2018-05-23T15:51:19.353Z,30.92
2018-05-23T15:54:19.471Z,30.88
2018-05-23T15:55:19.429Z,31.07
2018-05-23T15:56:19.427Z,31.05
2018-05-23T15:57:19.426Z,30.95
2018-05-23T15:58:19.387Z,31.01
2018-05-23T16:00:19.691Z,31.39
2018-05-23T16:02:19.347Z,31.34
2018-05-23T16:03:19.351Z,31.27
2018-05-23T16:04:19.353Z,31.24
2018-05-23T16:07:19.354Z,30.77
2018-05-23T16:09:19.415Z,31.41
2018-05-23T16:11:19.395Z,31.61
2018-05-23T16:12:19.645Z,31.75
2018-05-23T16:13:19.349Z,32.01
2018-05-23T16:14:19.349Z,31.97
2018-05-23T16:15:19.342Z,32.04
2018-05-23T16:16:19.391Z,31.84
2018-05-23T16:17:19.347Z,31.78
2018-05-23T16:18:19.647Z,31.70
2018-05-23T16:19:19.347Z,31.63
2018-05-23T16:20:19.343Z,31.56
2018-05-23T16:21:19.346Z,31.52
2018-05-23T16:23:19.822Z,31.67
2018-05-23T16:24:19.647Z,31.60
2018-05-23T16:25:19.500Z,31.68
2018-05-23T16:26:19.363Z,31.68
2018-05-23T16:27:19.363Z,31.60
2018-05-23T16:28:19.398Z,31.48
2018-05-23T16:29:19.357Z,31.48
2018-05-23T16:31:19.473Z,31.12
2018-05-23T16:32:19.372Z,31.01
2018-05-23T16:33:19.360Z,31.08
2018-05-23T16:34:19.416Z,31.07
2018-05-23T16:35:19.454Z,30.88
2018-05-23T16:36:19.826Z,30.77
2018-05-23T16:37:19.430Z,30.80
2018-05-23T16:38:19.474Z,30.83
2018-05-23T16:39:19.469Z,30.62
2018-05-23T16:40:19.436Z,30.45
2018-05-23T16:41:19.374Z,30.39
2018-05-23T16:42:19.428Z,30.20
2018-05-23T16:44:19.420Z,29.95
2018-05-23T16:45:19.413Z,29.92
2018-05-23T16:46:19.398Z,30.13
2018-05-23T16:47:19.371Z,30.14
2018-05-23T16:48:19.414Z,30.26
2018-05-23T16:49:19.430Z,30.35
2018-05-23T16:50:19.721Z,30.59
2018-05-23T16:51:19.372Z,30.64
2018-05-23T16:52:19.512Z,30.80
2018-05-23T16:53:19.652Z,30.86
2018-05-23T16:55:19.366Z,30.77
2018-05-23T16:56:19.361Z,30.90
2018-05-23T16:57:19.709Z,30.83
2018-05-23T16:58:19.353Z,30.55
2018-05-23T17:00:19.460Z,30.02
2018-05-23T17:01:19.360Z,30.14
2018-05-23T17:02:19.485Z,30.14
2018-05-23T17:03:19.392Z,29.96
2018-05-23T17:04:19.713Z,30.02
2018-05-23T17:05:19.410Z,29.83
2018-05-23T17:06:19.408Z,29.91
2018-05-23T17:07:19.392Z,29.84
2018-05-23T17:09:19.351Z,29.81
2018-05-23T17:10:19.408Z,29.76
2018-05-23T17:11:19.657Z,29.44
2018-05-23T17:12:19.397Z,28.93
2018-05-23T17:13:19.452Z,28.44
2018-05-23T17:14:20.057Z,28.31
2018-05-23T17:15:19.468Z,28.17
2018-05-23T17:16:19.449Z,28.22
2018-05-23T17:17:19.351Z,28.19
2018-05-23T17:18:19.647Z,28.30
2018-05-23T17:19:19.413Z,28.30
2018-05-23T17:21:19.344Z,28.32
2018-05-23T17:22:19.532Z,28.46
2018-05-23T17:23:19.331Z,28.66
2018-05-23T17:24:19.344Z,28.69
2018-05-23T17:25:19.638Z,28.94
2018-05-23T17:26:19.372Z,29.13
2018-05-23T17:27:19.353Z,29.17
2018-05-23T17:29:19.314Z,29.00
2018-05-23T17:31:19.305Z,28.90
2018-05-23T17:33:19.320Z,28.90
2018-05-23T17:34:19.310Z,28.84
2018-05-23T17:35:19.344Z,28.64
2018-05-23T17:36:19.291Z,28.72
2018-05-23T17:37:19.290Z,28.80
2018-05-23T17:39:19.285Z,28.66
2018-05-23T17:40:19.366Z,28.46
2018-05-23T17:41:19.459Z,28.34
2018-05-23T17:42:20.264Z,28.43
2018-05-23T17:44:19.574Z,28.27
2018-05-23T17:46:19.906Z,27.94
2018-05-23T17:47:19.336Z,27.70
2018-05-23T17:48:19.259Z,27.66
2018-05-23T17:49:19.251Z,27.57
2018-05-23T17:54:19.240Z,27.42
2018-05-23T17:55:19.262Z,27.35
2018-05-23T17:56:19.526Z,27.40
2018-05-23T17:57:19.223Z,27.42
2018-05-23T17:58:19.270Z,27.38
2018-05-23T17:59:19.297Z,27.16
2018-05-23T18:01:19.214Z,27.15
2018-05-23T18:02:19.507Z,27.15
2018-05-23T18:03:19.207Z,27.15
2018-05-23T18:04:19.252Z,27.19
2018-05-23T18:05:19.188Z,27.19
2018-05-23T18:06:19.223Z,27.12
2018-05-23T18:07:19.242Z,26.98
2018-05-23T18:09:19.526Z,26.67
2018-05-23T18:10:19.165Z,26.53
2018-05-23T18:12:19.168Z,26.36
2018-05-23T18:13:19.152Z,26.42
2018-05-23T18:14:19.150Z,26.30
2018-05-23T18:15:19.494Z,26.20
2018-05-23T18:16:19.136Z,26.01
2018-05-23T18:18:19.132Z,25.63
2018-05-23T18:19:19.126Z,25.55
2018-05-23T18:20:19.117Z,25.56
2018-05-23T18:21:19.679Z,25.52
2018-05-23T18:22:19.106Z,25.41
2018-05-23T18:23:19.195Z,25.41
2018-05-23T18:24:19.107Z,25.41
2018-05-23T18:26:19.092Z,25.46
2018-05-23T18:27:19.088Z,25.41
2018-05-23T18:28:19.402Z,25.34
2018-05-23T18:29:19.187Z,25.22
2018-05-23T18:30:19.109Z,25.18
2018-05-23T18:31:19.055Z,25.04
2018-05-23T18:32:19.047Z,24.96
2018-05-23T18:33:19.254Z,24.75
2018-05-23T18:34:19.036Z,24.58
2018-05-23T18:35:19.329Z,24.37
2018-05-23T18:36:19.073Z,24.23
2018-05-23T18:37:19.020Z,24.19
2018-05-23T18:38:19.015Z,24.16
2018-05-23T18:39:19.210Z,24.07
2018-05-23T18:40:19.096Z,23.98
2018-05-23T18:41:18.995Z,23.86
2018-05-23T18:42:19.332Z,23.81
2018-05-23T18:43:19.071Z,23.81